Airport View

Enter AWOS ICAO identifier for current METAR.

ex. KFNL

KM21 080600Z AUTO 00000KT 7SM CLR A3015 RMK AO2

8 Aug 2020 06:01

Frequency: 120.45

Phone: 270-338-7788

Other Area AWOS: K2I0 - KOWB - KHOP - KCKV

TAF KOWB 080520Z 0806/0906 VRB02KT P6SM SKC FM081500 17004KT P6SM SKC FM090000 VRB02KT P6SM SCT200